Abington, Pennsylvania
Current Conditions -  °F | °C
As of 8:54 AM on Saturday 01 Nov 2014 (Local Time) from KPNE Reporting Station
Light Rain Light Rain  
Wind Chill: 37°   Ceiling: 4500
Heat Index: 45°   Visibility: 6mi
Dew Point: 39°   Wind: 18mph
Humidity: 80%   Direction: 20°NNE
Pressure: 29.84"   Gusts: 25mph
Location:  40.12°N, 75.12°W
Report Text: KPNE 011254Z AUTO 02016G22KT 6SM -RA OVC045 07/04 A2984 RMK AO2 SLP105 P0012 T00720039 TSNO $
Loading
Personal Weather Stations






























Interactive Weather Map
Tropical Storm Tracking
New forecast layout! Learn more

10-Day Weather Forecast

Advertisements
Track Severe Weather on mobile